Time;durP1;ratioP1;P1;durP2;ratioP2;P2;SDS_P1;SDS_P2;PMS_P1;PMS_P2;Temp;Humidity;BMP_temperature;BMP_pressure;BME280_temperature;BME280_humidity;BME280_pressure;Samples;Min_cycle;Max_cycle;Signal;HPM_P1;HPM_P2
2022/03/01 00:02:23;;;;;;;87.70;36.75;;;;;;;-3.95;70.20;102680.03;1696216;84;21021;-68
2022/03/01 00:04:49;;;;;;;87.97;35.80;;;;;;;-3.95;70.24;102683.94;1696246;84;21498;-68
2022/03/01 00:07:15;;;;;;;95.00;39.10;;;;;;;-3.95;70.29;102678.73;1696140;84;21473;-68
2022/03/01 00:09:41;;;;;;;82.40;32.25;;;;;;;-3.96;70.32;102681.34;1695032;84;21093;-68
2022/03/01 00:12:08;;;;;;;92.53;35.25;;;;;;;-3.94;70.33;102684.81;1695007;84;28306;-68
2022/03/01 00:14:34;;;;;;;127.47;49.53;;;;;;;-3.95;70.38;102683.94;1695561;84;20991;-68
2022/03/01 00:17:00;;;;;;;209.05;76.28;;;;;;;-3.94;70.39;102684.34;1695102;84;21152;-68
2022/03/01 00:19:29;;;;;;;239.45;83.65;;;;;;;-3.96;70.43;102682.20;1695934;84;21070;-68
2022/03/01 00:21:56;;;;;;;224.70;80.30;;;;;;;-4.02;70.46;102673.19;1695711;84;21033;-68
2022/03/01 00:24:22;;;;;;;223.03;78.02;;;;;;;-4.06;70.52;102675.41;1695820;84;21037;-68
2022/03/01 00:26:48;;;;;;;221.45;79.53;;;;;;;-4.11;70.54;102670.25;1696478;83;21056;-68
2022/03/01 00:29:15;;;;;;;228.70;83.35;;;;;;;-4.12;70.55;102673.73;1696585;84;21073;-69
2022/03/01 00:31:41;;;;;;;246.10;92.47;;;;;;;-4.14;70.55;102675.95;1696824;84;21507;-68
2022/03/01 00:34:07;;;;;;;230.55;82.57;;;;;;;-4.17;70.58;102674.69;1676064;84;21491;-68
2022/03/01 00:36:33;;;;;;;253.10;86.90;;;;;;;-4.22;70.61;102673.91;1675498;85;28250;-68
2022/03/01 00:39:00;;;;;;;226.80;82.02;;;;;;;-4.24;70.66;102675.66;1676150;84;21070;-69
2022/03/01 00:41:26;;;;;;;255.55;91.20;;;;;;;-4.28;70.68;102681.78;1676229;85;21589;-68
2022/03/01 00:43:52;;;;;;;222.30;79.05;;;;;;;-4.32;70.70;102682.69;1676380;85;21058;-68
2022/03/01 00:46:18;;;;;;;184.78;67.62;;;;;;;-4.31;70.72;102683.98;1676178;85;21070;-68
2022/03/01 00:48:44;;;;;;;175.75;60.90;;;;;;;-4.31;70.78;102687.03;1676558;85;28151;-68
2022/03/01 00:51:10;;;;;;;151.60;53.28;;;;;;;-4.35;70.82;102695.76;1676257;84;21063;-68
2022/03/01 00:53:36;;;;;;;191.95;67.60;;;;;;;-4.37;70.85;102693.63;1676338;84;21151;-69
2022/03/01 00:56:04;;;;;;;149.15;55.43;;;;;;;-4.37;70.89;102693.63;1676280;85;26703;-68
2022/03/01 00:58:31;;;;;;;167.53;60.12;;;;;;;-4.32;70.94;102699.19;1676582;85;21014;-68
2022/03/01 01:00:57;;;;;;;211.68;71.92;;;;;;;-4.28;70.98;102692.20;1676441;84;21058;-68
2022/03/01 01:03:23;;;;;;;236.30;81.10;;;;;;;-4.25;71.01;102696.06;1676405;85;21478;-68
2022/03/01 01:05:49;;;;;;;208.70;75.37;;;;;;;-4.23;71.07;102700.83;1676500;85;21704;-68
2022/03/01 01:08:15;;;;;;;186.95;67.17;;;;;;;-4.20;71.12;102705.99;1676318;85;21002;-69
2022/03/01 01:10:41;;;;;;;196.95;65.67;;;;;;;-4.24;71.16;102700.39;1676384;85;26416;-69
2022/03/01 01:13:07;;;;;;;209.22;73.45;;;;;;;-4.23;71.22;102707.34;1676336;85;21022;-69
2022/03/01 01:15:33;;;;;;;241.90;82.55;;;;;;;-4.30;71.23;102712.20;1676430;85;21050;-69
2022/03/01 01:17:59;;;;;;;213.43;70.40;;;;;;;-4.35;71.31;102709.64;1684122;84;21031;-69
2022/03/01 01:20:25;;;;;;;214.88;78.00;;;;;;;-4.35;71.32;102711.38;1685764;85;26672;-69
2022/03/01 01:22:52;;;;;;;220.07;77.00;;;;;;;-4.37;71.37;102717.06;1685939;85;20967;-69
2022/03/01 01:25:21;;;;;;;188.72;66.42;;;;;;;-4.37;71.41;102713.16;1685596;84;20999;-69
2022/03/01 01:27:51;;;;;;;221.57;72.22;;;;;;;-4.35;71.43;102716.59;1686028;84;21105;-69
2022/03/01 01:30:19;;;;;;;389.30;111.83;;;;;;;-4.25;71.47;102718.20;1685996;84;21062;-69
2022/03/01 01:32:48;;;;;;;467.15;128.85;;;;;;;-4.21;71.49;102714.67;1685505;84;21078;-69
2022/03/01 01:35:13;;;;;;;505.87;143.13;;;;;;;-4.28;71.52;102716.50;1685874;85;21035;-69
2022/03/01 01:37:40;;;;;;;605.27;167.50;;;;;;;-4.32;71.57;102716.55;1686037;84;21022;-69
2022/03/01 01:40:09;;;;;;;448.10;123.18;;;;;;;-4.27;71.63;102706.95;1686002;85;21007;-69
2022/03/01 01:42:35;;;;;;;434.90;119.28;;;;;;;-4.27;71.63;102713.02;1685605;83;21071;-69
2022/03/01 01:45:01;;;;;;;342.70;93.52;;;;;;;-4.37;71.66;102710.55;1686033;84;26685;-68
2022/03/01 01:47:27;;;;;;;339.65;97.88;;;;;;;-4.42;71.69;102715.80;1685385;85;21067;-69
2022/03/01 01:49:54;;;;;;;323.82;97.42;;;;;;;-4.44;71.74;102714.98;1685848;85;21126;-68
2022/03/01 01:52:20;;;;;;;349.52;105.00;;;;;;;-4.47;71.80;102716.31;1685987;83;26533;-68
2022/03/01 01:54:45;;;;;;;296.43;87.00;;;;;;;-4.49;71.83;102715.89;1685829;85;21270;-68
2022/03/01 01:57:19;;;;;;;277.65;88.52;;;;;;;-4.52;71.89;102710.72;1685857;85;20991;-68
2022/03/01 01:59:46;;;;;;;250.25;75.60;;;;;;;-4.48;71.93;102712.41;1685974;84;21014;-68
2022/03/01 02:02:14;;;;;;;201.25;67.10;;;;;;;-4.47;71.97;102715.02;1686006;84;21130;-68
2022/03/01 02:04:40;;;;;;;132.78;42.78;;;;;;;-4.44;72.00;102712.38;1675630;85;21055;-68
2022/03/01 02:07:06;;;;;;;246.80;75.62;;;;;;;-4.39;72.01;102713.59;1656324;84;21911;-68
2022/03/01 02:09:32;;;;;;;126.10;42.78;;;;;;;-4.31;72.01;102706.56;1664485;86;27507;-68
2022/03/01 02:11:58;;;;;;;129.63;43.20;;;;;;;-4.36;72.04;102707.08;1653157;84;21070;-68
2022/03/01 02:14:24;;;;;;;72.82;29.05;;;;;;;-4.30;72.07;102717.41;1679273;84;21023;-68
2022/03/01 02:16:50;;;;;;;84.92;31.00;;;;;;;-4.21;72.08;102706.86;1681887;84;21058;-68
2022/03/01 02:19:16;;;;;;;74.97;30.15;;;;;;;-4.11;72.09;102705.86;1675132;85;21147;-68
2022/03/01 02:21:50;;;;;;;83.37;31.50;;;;;;;-4.06;72.11;102711.88;1675292;85;21009;-68
2022/03/01 02:24:17;;;;;;;122.28;37.70;;;;;;;-4.00;72.12;102706.58;1675295;85;21140;-68
2022/03/01 02:26:43;;;;;;;116.40;39.33;;;;;;;-3.99;72.13;102705.70;1675342;85;21551;-68
2022/03/01 02:29:09;;;;;;;162.82;46.75;;;;;;;-3.98;72.15;102698.32;1675362;85;21136;-68
2022/03/01 02:31:35;;;;;;;99.47;34.05;;;;;;;-3.97;72.19;102701.32;1675320;85;22168;-68
2022/03/01 02:34:01;;;;;;;87.78;30.08;;;;;;;-3.96;72.21;102703.05;1675377;85;21077;-68
2022/03/01 02:36:27;;;;;;;116.40;37.58;;;;;;;-3.93;72.23;102703.00;1675477;84;25870;-68
2022/03/01 02:38:53;;;;;;;106.92;35.13;;;;;;;-3.92;72.24;102699.53;1675360;85;21070;-68
2022/03/01 02:41:19;;;;;;;92.17;32.65;;;;;;;-3.91;72.27;102696.05;1675490;85;20919;-68
2022/03/01 02:43:45;;;;;;;115.75;37.55;;;;;;;-3.91;72.30;102695.18;1675464;85;21018;-68
2022/03/01 02:46:11;;;;;;;80.10;29.18;;;;;;;-3.91;72.33;102693.88;1675387;84;20999;-68
2022/03/01 02:48:37;;;;;;;76.50;31.07;;;;;;;-3.90;72.34;102697.75;1675480;85;21078;-68
2022/03/01 02:51:03;;;;;;;76.75;28.92;;;;;;;-3.88;72.35;102701.21;1672977;83;28190;-68
2022/03/01 02:53:29;;;;;;;88.17;34.92;;;;;;;-3.83;72.37;102701.98;1675695;85;21015;-68
2022/03/01 02:55:55;;;;;;;84.25;30.45;;;;;;;-3.79;72.38;102704.98;1675197;85;21191;-68
2022/03/01 02:58:21;;;;;;;95.97;36.33;;;;;;;-3.80;72.38;102701.94;1675301;85;26745;-68
2022/03/01 03:00:48;;;;;;;85.80;33.67;;;;;;;-3.81;72.41;102696.33;1675402;84;21030;-68
2022/03/01 03:03:15;;;;;;;74.50;28.77;;;;;;;-3.86;72.44;102695.52;1675347;84;21105;-68
2022/03/01 03:05:41;;;;;;;77.32;32.33;;;;;;;-3.85;72.45;102692.48;1675453;85;21063;-68
2022/03/01 03:08:07;;;;;;;68.90;29.65;;;;;;;-3.83;72.46;102691.56;1675501;85;21050;-68
2022/03/01 03:10:34;;;;;;;81.35;34.23;;;;;;;-3.81;72.46;102695.03;1675422;84;21542;-68
2022/03/01 03:13:01;;;;;;;71.07;27.40;;;;;;;-3.78;72.49;102688.46;1675525;85;21014;-68
2022/03/01 03:15:27;;;;;;;78.28;31.52;;;;;;;-3.76;72.46;102680.59;1675509;85;21113;-68
2022/03/01 03:17:54;;;;;;;90.72;31.90;;;;;;;-3.73;72.46;102681.42;1675040;84;21014;-68
2022/03/01 03:20:21;;;;;;;75.60;32.73;;;;;;;-3.72;72.47;102675.33;1675263;84;21200;-68
2022/03/01 03:22:47;;;;;;;77.97;30.60;;;;;;;-3.68;72.46;102680.05;1675098;85;21511;-67
2022/03/01 03:25:13;;;;;;;71.30;28.80;;;;;;;-3.67;72.48;102674.83;1675269;84;21014;-67
2022/03/01 03:27:39;;;;;;;90.17;37.53;;;;;;;-3.64;72.48;102669.56;1675416;85;21003;-67
2022/03/01 03:30:07;;;;;;;73.40;30.90;;;;;;;-3.64;72.47;102665.65;1675367;85;21002;-67
2022/03/01 03:32:33;;;;;;;77.17;32.40;;;;;;;-3.64;72.50;102664.34;1675373;84;21819;-67
2022/03/01 03:34:59;;;;;;;76.85;27.45;;;;;;;-3.61;72.50;102664.30;1675121;85;21023;-67
2022/03/01 03:37:25;;;;;;;78.37;30.20;;;;;;;-3.59;72.50;102669.03;1675427;84;21031;-67
2022/03/01 03:39:51;;;;;;;76.17;29.87;;;;;;;-3.60;72.51;102669.94;1675353;85;21016;-68
2022/03/01 03:42:17;;;;;;;91.37;33.92;;;;;;;-3.59;72.52;102667.72;1675461;85;26669;-67
2022/03/01 03:44:43;;;;;;;88.40;34.53;;;;;;;-3.60;72.52;102668.63;1675423;85;21251;-67
2022/03/01 03:47:09;;;;;;;85.47;34.25;;;;;;;-3.62;72.53;102665.17;1675269;85;26713;-67
2022/03/01 03:49:37;;;;;;;72.53;30.82;;;;;;;-3.64;72.52;102664.78;1675328;84;21062;-67
2022/03/01 03:52:05;;;;;;;71.65;31.35;;;;;;;-3.66;72.53;102671.31;1675143;85;21695;-67
2022/03/01 03:54:31;;;;;;;76.97;31.05;;;;;;;-3.67;72.55;102663.09;1675541;84;21022;-67
2022/03/01 03:56:57;;;;;;;76.47;33.00;;;;;;;-3.65;72.55;102662.62;1675222;85;21137;-67
2022/03/01 03:59:23;;;;;;;80.80;30.88;;;;;;;-3.64;72.54;102663.05;1675142;85;21078;-67
2022/03/01 04:01:49;;;;;;;66.72;30.12;;;;;;;-3.67;72.55;102659.19;1675264;85;21025;-67
2022/03/01 04:04:15;;;;;;;73.65;31.35;;;;;;;-3.67;72.57;102653.11;1675421;85;20993;-67
2022/03/01 04:06:41;;;;;;;74.22;33.42;;;;;;;-3.67;72.58;102657.02;1675540;85;21051;-67
2022/03/01 04:09:07;;;;;;;83.27;32.55;;;;;;;-3.67;72.58;102660.48;1675243;85;21348;-67
2022/03/01 04:11:33;;;;;;;71.65;31.57;;;;;;;-3.68;72.59;102656.59;1675649;85;26685;-67
2022/03/01 04:14:00;;;;;;;74.67;35.03;;;;;;;-3.71;72.60;102649.69;1675256;85;21082;-67
2022/03/01 04:16:27;;;;;;;75.20;31.55;;;;;;;-3.68;72.60;102652.68;1675539;84;21582;-67
2022/03/01 04:18:54;;;;;;;83.45;34.70;;;;;;;-3.71;72.62;102650.99;1675026;84;21062;-68
2022/03/01 04:21:20;;;;;;;86.53;32.75;;;;;;;-3.72;72.62;102647.95;1675739;85;21807;-67
2022/03/01 04:23:47;;;;;;;79.30;34.45;;;;;;;-3.74;72.65;102645.83;1675357;85;21022;-67
2022/03/01 04:26:13;;;;;;;81.72;32.45;;;;;;;-3.74;72.65;102641.92;1675390;85;21078;-67
2022/03/01 04:28:39;;;;;;;76.35;32.75;;;;;;;-3.76;72.65;102634.55;1675724;85;21601;-68
2022/03/01 04:31:05;;;;;;;77.92;33.60;;;;;;;-3.75;72.64;102634.97;1675310;85;21025;-67
2022/03/01 04:33:31;;;;;;;81.08;34.15;;;;;;;-3.75;72.64;102624.55;1675320;84;21793;-67
2022/03/01 04:35:59;;;;;;;76.65;32.55;;;;;;;-3.74;72.67;102624.98;1675207;85;20999;-67
2022/03/01 04:38:25;;;;;;;83.00;34.30;;;;;;;-3.76;72.68;102626.73;1675353;84;21009;-67
2022/03/01 04:40:52;;;;;;;81.92;31.93;;;;;;;-3.77;72.68;102618.95;1675398;85;21014;-67
2022/03/01 04:43:19;;;;;;;87.33;34.67;;;;;;;-3.77;72.68;102621.12;1654147;85;21065;-68
2022/03/01 04:45:45;;;;;;;92.53;34.58;;;;;;;-3.79;72.71;102621.57;1675312;85;21754;-68
2022/03/01 04:48:11;;;;;;;93.20;36.50;;;;;;;-3.81;72.72;102615.53;1675065;84;21007;-68
2022/03/01 04:50:38;;;;;;;91.37;38.53;;;;;;;-3.82;72.75;102612.94;1675232;85;21014;-68
2022/03/01 04:53:04;;;;;;;86.30;35.15;;;;;;;-3.83;72.76;102609.47;1675022;85;21021;-68
2022/03/01 04:55:30;;;;;;;91.67;37.63;;;;;;;-3.81;72.74;102598.59;1675239;85;21058;-68
2022/03/01 04:57:56;;;;;;;110.97;45.48;;;;;;;-3.78;72.77;102597.67;1675262;85;21113;-68
2022/03/01 05:00:22;;;;;;;98.90;38.48;;;;;;;-3.77;72.78;102599.41;1675355;85;21460;-68
2022/03/01 05:02:48;;;;;;;89.65;35.52;;;;;;;-3.78;72.81;102593.77;1675336;85;21467;-68
2022/03/01 05:05:15;;;;;;;137.25;50.30;;;;;;;-3.77;72.81;102587.23;1675265;85;21459;-68
2022/03/01 05:07:43;;;;;;;82.72;35.40;;;;;;;-3.76;72.83;102586.33;1675427;85;20991;-68
2022/03/01 05:10:11;;;;;;;87.62;34.73;;;;;;;-3.74;72.83;102591.09;1675289;85;21539;-68
2022/03/01 05:12:48;;;;;;;83.87;33.23;;;;;;;-3.78;72.85;102592.02;1675245;85;21066;-67
2022/03/01 05:15:15;;;;;;;104.63;37.60;;;;;;;-3.81;72.85;102586.86;1674783;85;21026;-67
2022/03/01 05:17:41;;;;;;;91.30;35.13;;;;;;;-3.86;72.87;102587.37;1675116;85;21614;-67
2022/03/01 05:20:08;;;;;;;103.90;39.23;;;;;;;-3.88;72.89;102580.03;1675025;85;21586;-68
2022/03/01 05:22:34;;;;;;;77.67;33.00;;;;;;;-3.90;72.91;102579.17;1674838;84;21318;-67
2022/03/01 05:25:01;;;;;;;98.72;36.13;;;;;;;-3.89;72.91;102582.64;1675222;85;21019;-67
2022/03/01 05:27:28;;;;;;;79.65;32.28;;;;;;;-3.90;72.92;102572.66;1674800;85;21054;-67
2022/03/01 05:29:55;;;;;;;93.92;37.70;;;;;;;-3.88;72.93;102577.86;1675084;84;21042;-67
2022/03/01 05:32:21;;;;;;;86.75;36.10;;;;;;;-3.86;72.95;102570.87;1675008;84;21139;-68
2022/03/01 05:34:47;;;;;;;95.75;37.13;;;;;;;-3.83;72.96;102569.51;1675016;85;21143;-68
2022/03/01 05:37:13;;;;;;;91.17;35.17;;;;;;;-3.83;72.97;102567.77;1675272;85;21071;-68
2022/03/01 05:39:39;;;;;;;94.58;36.73;;;;;;;-3.81;73.00;102569.92;1675297;84;25884;-68
2022/03/01 05:42:05;;;;;;;87.17;34.75;;;;;;;-3.81;73.02;102575.58;1675349;85;21022;-68
2022/03/01 05:44:31;;;;;;;93.87;37.70;;;;;;;-3.79;73.05;102573.34;1675109;85;21011;-68
2022/03/01 05:46:59;;;;;;;90.40;35.23;;;;;;;-3.77;73.06;102571.59;1675229;84;21173;-68
2022/03/01 05:49:25;;;;;;;138.82;54.88;;;;;;;-3.74;73.08;102578.50;1675103;85;21014;-68
2022/03/01 05:51:51;;;;;;;145.50;56.08;;;;;;;-3.72;73.09;102574.10;1675359;85;21018;-68
2022/03/01 05:54:17;;;;;;;149.38;63.90;;;;;;;-3.67;73.09;102573.16;1675156;85;28456;-68
2022/03/01 05:56:43;;;;;;;129.78;55.38;;;;;;;-3.60;73.10;102576.08;1675414;85;21014;-68
2022/03/01 05:59:09;;;;;;;125.95;51.02;;;;;;;-3.56;73.13;102571.23;1675184;85;21613;-68
2022/03/01 06:01:35;;;;;;;188.97;72.82;;;;;;;-3.55;73.15;102569.45;1675354;85;21545;-68
2022/03/01 06:04:01;;;;;;;366.70;145.90;;;;;;;-3.56;73.17;102569.92;1675384;84;20999;-68
2022/03/01 06:06:27;;;;;;;269.77;110.05;;;;;;;-3.56;73.18;102576.45;1675255;85;21058;-68
2022/03/01 06:08:53;;;;;;;233.00;91.37;;;;;;;-3.54;73.21;102577.27;1675395;84;21022;-68
2022/03/01 06:11:19;;;;;;;274.52;112.62;;;;;;;-3.50;73.25;102574.59;1675205;85;21762;-68
2022/03/01 06:13:45;;;;;;;263.60;105.95;;;;;;;-3.47;73.24;102581.06;1674992;85;20998;-68
2022/03/01 06:16:11;;;;;;;475.92;179.23;;;;;;;-3.45;73.28;102575.39;1675221;85;26399;-68
2022/03/01 06:18:37;;;;;;;347.35;134.15;;;;;;;-3.46;73.24;102577.57;1674949;84;21082;-68
2022/03/01 06:21:03;;;;;;;392.55;159.78;;;;;;;-3.52;73.24;102572.03;1675532;85;21006;-68
2022/03/01 06:23:31;;;;;;;225.03;90.65;;;;;;;-3.50;73.26;102579.81;1653609;85;22114;-68
2022/03/01 06:25:57;;;;;;;210.43;91.90;;;;;;;-3.42;73.26;102573.59;1675268;85;21061;-68
2022/03/01 06:28:23;;;;;;;221.57;96.55;;;;;;;-2.74;73.13;102581.36;1675156;85;21522;-68
2022/03/01 06:30:49;;;;;;;157.45;72.53;;;;;;;-2.45;72.86;102586.41;1675230;84;21391;-68
2022/03/01 06:33:18;;;;;;;135.20;54.45;;;;;;;-2.42;72.86;102585.02;1675226;84;21046;-68
2022/03/01 06:35:43;;;;;;;124.70;50.00;;;;;;;-2.35;72.92;102593.14;1674705;85;21189;-68
2022/03/01 06:38:09;;;;;;;120.28;46.05;;;;;;;-2.24;72.98;102596.37;1672981;83;21051;-68
2022/03/01 06:40:35;;;;;;;113.47;45.73;;;;;;;-2.11;73.06;102590.00;1673982;84;21471;-68
2022/03/01 07:25:25;;;;;;;122.07;44.40;;;;;;;0.62;72.67;102574.16;1897032;75;22326;-69
2022/03/01 07:27:53;;;;;;;80.55;34.13;;;;;;;0.78;72.56;102575.33;1865442;77;20916;-69
2022/03/01 07:30:21;;;;;;;216.53;73.57;;;;;;;0.99;72.46;102577.19;1865313;77;21119;-69
2022/03/01 07:32:48;;;;;;;354.45;132.60;;;;;;;1.05;72.39;102574.37;1852342;77;20903;-69
2022/03/01 07:35:14;;;;;;;283.27;111.72;;;;;;;1.08;72.30;102576.88;1840835;77;21050;-68
2022/03/01 07:37:40;;;;;;;176.50;73.28;;;;;;;1.05;72.15;102576.98;1859286;77;20998;-68
2022/03/01 07:40:10;;;;;;;153.72;62.45;;;;;;;1.06;72.07;102578.69;1874591;75;20981;-68
2022/03/01 07:42:36;;;;;;;;;;;;;;;1.15;71.96;102578.81;1855939;77;21144;-68
2022/03/01 07:45:04;;;;;;;71.42;31.27;;;;;;;1.21;71.88;102571.56;1853364;77;20151;-68
2022/03/01 07:47:30;;;;;;;67.37;29.20;;;;;;;1.28;71.76;102570.42;1853490;77;20974;-68
2022/03/01 07:49:56;;;;;;;55.40;28.00;;;;;;;1.39;71.62;102564.31;1853429;77;21041;-68
2022/03/01 07:52:22;;;;;;;53.28;28.02;;;;;;;1.42;71.49;102559.37;1870238;75;21013;-68
2022/03/01 07:54:48;;;;;;;80.05;41.35;;;;;;;1.43;71.34;102565.91;1851915;77;21167;-67
2022/03/01 07:57:16;;;;;;;50.55;24.07;;;;;;;1.58;71.27;102567.55;1858806;75;20972;-68
2022/03/01 07:59:42;;;;;;;98.50;32.65;;;;;;;1.63;71.07;102569.53;1839618;77;21046;-69
2022/03/01 08:02:08;;;;;;;89.87;31.42;;;;;;;1.77;71.00;102569.39;1833504;75;21004;-69
2022/03/01 08:04:34;;;;;;;95.47;37.20;;;;;;;1.71;70.79;102570.95;1798170;78;21512;-69
2022/03/01 08:07:00;;;;;;;54.85;24.80;;;;;;;1.73;70.67;102568.25;1819897;78;21494;-69
2022/03/01 08:09:26;;;;;;;54.15;29.87;;;;;;;1.76;70.49;102572.92;1821504;78;21474;-69
2022/03/01 08:11:52;;;;;;;52.85;25.15;;;;;;;1.75;70.33;102565.12;1816295;78;21042;-69
2022/03/01 08:14:18;;;;;;;40.78;18.60;;;;;;;1.85;70.23;102566.46;1818816;78;21007;-69
2022/03/01 08:16:44;;;;;;;46.92;20.32;;;;;;;1.85;70.09;102567.78;1806432;77;20990;-69
2022/03/01 08:19:10;;;;;;;49.80;22.80;;;;;;;1.93;69.98;102565.25;1810208;77;21043;-68
2022/03/01 08:21:36;;;;;;;41.95;20.37;;;;;;;1.98;69.81;102571.63;1804619;77;21040;-69
2022/03/01 08:24:03;;;;;;;57.88;26.52;;;;;;;2.09;69.68;102568.55;1768373;79;21150;-68
2022/03/01 08:26:29;;;;;;;62.13;28.07;;;;;;;2.21;69.54;102572.02;1770349;80;21127;-69
2022/03/01 08:28:55;;;;;;;64.58;25.48;;;;;;;2.29;69.43;102566.81;1766551;80;21069;-69
2022/03/01 08:31:21;;;;;;;151.02;41.88;;;;;;;2.49;69.32;102566.00;1778178;80;21193;-69
2022/03/01 08:33:47;;;;;;;45.85;19.67;;;;;;;2.59;69.21;102571.72;1760432;80;21046;-69
2022/03/01 08:36:13;;;;;;;71.37;26.35;;;;;;;2.69;69.12;102567.77;1768785;80;21004;-69
2022/03/01 08:38:40;;;;;;;104.12;34.95;;;;;;;2.64;69.00;102569.76;1771118;80;21481;-70
2022/03/01 08:41:07;;;;;;;42.27;18.80;;;;;;;2.72;68.91;102577.70;1770849;80;21016;-69
2022/03/01 08:43:33;;;;;;;46.63;17.73;;;;;;;2.73;68.72;102576.80;1777520;80;21129;-70
2022/03/01 08:45:59;;;;;;;34.40;16.60;;;;;;;2.70;68.54;102577.39;1777228;80;21048;-70
2022/03/01 08:48:25;;;;;;;39.27;16.87;;;;;;;2.79;68.43;102580.93;1771917;80;20946;-70
2022/03/01 08:50:51;;;;;;;36.88;17.90;;;;;;;2.87;68.32;102578.37;1767469;80;21533;-70
2022/03/01 08:53:19;;;;;;;36.55;19.42;;;;;;;2.90;68.14;102578.69;1778759;80;21010;-70
2022/03/01 08:55:46;;;;;;;29.95;17.25;;;;;;;2.86;67.97;102584.55;1778566;80;21133;-70
2022/03/01 08:58:12;;;;;;;38.08;18.62;;;;;;;2.80;67.73;102576.06;1778608;80;21050;-71
2022/03/01 09:00:38;;;;;;;33.10;16.50;;;;;;;2.73;67.55;102571.98;1776086;80;21481;-70
2022/03/01 09:03:05;;;;;;;55.78;23.90;;;;;;;2.82;67.46;102577.70;1777016;80;21041;-70
2022/03/01 09:05:32;;;;;;;36.23;18.10;;;;;;;2.96;67.37;102567.87;1771372;80;20989;-69
2022/03/01 09:07:58;;;;;;;39.98;17.65;;;;;;;3.09;67.26;102570.38;1682419;79;90426;-70
2022/03/01 09:10:24;;;;;;;48.60;20.20;;;;;;;3.09;67.09;102569.52;1667271;84;21150;-69
2022/03/01 09:12:52;;;;;;;37.55;15.28;;;;;;;3.13;66.99;102560.06;1666255;84;20972;-69
2022/03/01 09:15:18;;;;;;;28.30;15.48;;;;;;;3.18;66.81;102560.72;1664296;84;21101;-69
2022/03/01 09:17:45;;;;;;;29.57;14.43;;;;;;;3.18;66.71;102558.08;1662774;84;21016;-68
2022/03/01 09:20:11;;;;;;;32.93;16.27;;;;;;;3.24;66.59;102560.43;1663499;84;21490;-68
2022/03/01 09:22:37;;;;;;;31.37;15.88;;;;;;;3.33;66.52;102550.80;1664620;84;21494;-69
2022/03/01 09:25:04;;;;;;;30.20;15.35;;;;;;;3.29;66.30;102551.86;1666167;84;21504;-68
2022/03/01 09:27:31;;;;;;;33.30;16.70;;;;;;;3.31;66.21;102551.31;1653569;84;21036;-69
2022/03/01 09:29:57;;;;;;;34.03;17.10;;;;;;;3.30;66.06;102544.81;1653697;84;21017;-69
2022/03/01 09:32:25;;;;;;;36.85;16.70;;;;;;;3.22;65.88;102545.62;1654561;84;21052;-69
2022/03/01 09:34:51;;;;;;;34.35;18.40;;;;;;;3.18;65.73;102549.31;1658306;84;21611;-69
2022/03/01 09:37:17;;;;;;;31.45;15.58;;;;;;;3.24;65.61;102540.66;1656712;84;21812;-69
2022/03/01 09:39:43;;;;;;;30.72;16.02;;;;;;;3.36;65.53;102537.47;1654736;84;21113;-69
2022/03/01 09:42:09;;;;;;;29.45;15.90;;;;;;;3.32;65.36;102540.31;1654276;84;21028;-69
2022/03/01 09:44:35;;;;;;;161.07;58.95;;;;;;;3.24;65.19;102531.89;1657473;85;21157;-70
2022/03/01 09:47:02;;;;;;;559.83;195.18;;;;;;;3.22;65.04;102531.12;1649967;86;21035;-70
2022/03/01 09:49:29;;;;;;;745.40;274.73;;;;;;;3.24;64.87;102530.11;1654490;84;21106;-70
2022/03/01 09:51:55;;;;;;;595.75;231.35;;;;;;;3.19;64.65;102533.44;1637491;86;21446;-69
2022/03/01 09:54:24;;;;;;;462.92;181.70;;;;;;;3.23;64.53;102536.80;1629317;88;21043;-69
2022/03/01 09:56:50;;;;;;;114.40;44.23;;;;;;;3.29;64.32;102538.68;1651118;86;21106;-70
2022/03/01 09:59:17;;;;;;;42.33;18.85;;;;;;;3.27;64.19;102537.88;1617480;87;21078;-69
2022/03/01 10:01:52;;;;;;;115.05;52.13;;;;;;;3.36;64.09;102531.33;1630624;88;21054;-69
2022/03/01 10:04:19;;;;;;;157.93;74.22;;;;;;;3.44;64.00;102527.42;1630490;88;21019;-70
2022/03/01 10:06:48;;;;;;;82.88;41.15;;;;;;;3.34;63.71;102529.25;1630621;88;21499;-69
2022/03/01 10:09:27;;;;;;;62.75;30.32;;;;;;;3.37;63.62;102530.42;1633210;86;21327;-69
2022/03/01 10:11:51;;;;;;;23.67;12.15;;;;;;;3.33;63.44;102525.75;1640616;87;21110;-69
2022/03/01 10:14:31;;;;;;;21.87;11.53;;;;;;;3.44;63.38;102522.16;1655422;86;21039;-70
2022/03/01 10:16:57;;;;;;;20.55;12.30;;;;;;;3.63;63.35;102518.61;1641718;87;21615;-70
2022/03/01 10:19:23;;;;;;;20.43;11.08;;;;;;;3.62;63.13;102514.29;1655325;86;21463;-70
2022/03/01 10:22:01;;;;;;;22.27;12.28;;;;;;;3.65;63.07;102509.72;1641836;87;22097;-69
2022/03/01 10:24:27;;;;;;;20.48;10.80;;;;;;;3.73;63.02;102510.67;1630181;84;21498;-70
2022/03/01 10:27:01;;;;;;;20.50;11.55;;;;;;;3.78;62.95;102499.41;1697428;83;21050;-70
2022/03/01 10:29:28;;;;;;;20.68;12.10;;;;;;;3.86;62.92;102489.34;1682094;84;21032;-69
2022/03/01 10:31:59;;;;;;;25.32;12.58;;;;;;;3.84;62.78;102496.47;1684177;84;21106;-69
2022/03/01 10:34:24;;;;;;;42.90;17.05;;;;;;;3.80;62.63;102497.58;1667195;84;21577;-69
2022/03/01 10:36:51;;;;;;;21.25;10.40;;;;;;;3.81;62.56;102493.98;1673695;83;21498;-73
2022/03/01 10:39:20;;;;;;;22.25;11.00;;;;;;;3.86;62.51;102497.27;1687691;84;21076;-68
2022/03/01 10:41:49;;;;;;;22.62;11.88;;;;;;;3.97;62.47;102495.81;1711854;83;21062;-70
2022/03/01 10:44:22;;;;;;;23.25;12.15;;;;;;;4.07;62.36;102494.88;1675425;83;21022;-70
2022/03/01 10:46:59;;;;;;;25.23;11.30;;;;;;;3.98;62.19;102488.72;1710770;83;21170;-70
2022/03/01 10:49:28;;;;;;;23.80;12.25;;;;;;;4.02;62.16;102487.64;1703616;83;21539;-70
2022/03/01 10:51:58;;;;;;;25.82;12.58;;;;;;;4.10;62.11;102489.44;1683421;83;21004;-70
2022/03/01 10:54:32;;;;;;;19.57;10.78;;;;;;;4.14;62.01;102488.36;1665599;84;22060;-70
2022/03/01 10:57:00;;;;;;;23.77;12.30;;;;;;;4.11;61.87;102476.64;1668753;86;21112;-70
2022/03/01 10:59:28;;;;;;;26.05;12.30;;;;;;;4.06;61.75;102473.36;1678889;84;21899;-71
2022/03/01 11:01:54;;;;;;;20.72;12.47;;;;;;;4.12;61.68;102475.69;1673937;84;21000;-71
2022/03/01 11:04:25;;;;;;;26.55;12.70;;;;;;;4.19;61.62;102470.94;1665291;86;21028;-71
2022/03/01 11:06:48;;;;;;;24.30;12.63;;;;;;;4.28;61.55;102470.03;1640866;87;21561;-71
2022/03/01 11:09:15;;;;;;;32.83;15.10;;;;;;;4.34;61.47;102463.10;1671108;84;22242;-71
2022/03/01 11:11:41;;;;;;;47.98;19.85;;;;;;;4.41;61.45;102460.53;1701261;83;21915;-71
2022/03/01 11:14:12;;;;;;;92.67;30.45;;;;;;;4.51;61.40;102463.08;1703403;83;21065;-71
2022/03/01 11:17:07;;;;;;;162.25;51.95;;;;;;;4.56;61.35;102455.38;1663157;85;21046;-71
2022/03/01 11:19:54;;;;;;;461.25;180.37;;;;;;;4.59;61.28;102453.89;1681993;83;21051;-71
2022/03/01 11:22:28;;;;;;;196.65;74.20;;;;;;;4.50;61.18;102442.86;1665637;85;21088;-71
2022/03/01 11:24:54;;;;;;;60.08;25.10;;;;;;;4.49;61.09;102435.89;1674882;85;21323;-71
2022/03/01 11:27:22;;;;;;;86.32;35.38;;;;;;;4.50;60.98;102435.44;1687281;83;20990;-70
2022/03/01 11:29:49;;;;;;;55.85;25.25;;;;;;;4.49;60.95;102427.97;1702208;83;21001;-71
2022/03/01 11:32:19;;;;;;;73.85;34.48;;;;;;;4.54;60.89;102422.42;1697614;83;21021;-71
2022/03/01 11:34:46;;;;;;;32.05;19.73;;;;;;;4.63;60.87;102420.63;1708407;83;21072;-71
2022/03/01 11:37:17;;;;;;;30.00;15.95;;;;;;;4.70;60.77;102414.54;1687935;83;21561;-71
2022/03/01 11:39:44;;;;;;;51.02;22.70;;;;;;;4.74;60.75;102408.16;1684831;83;21426;-70
2022/03/01 11:42:16;;;;;;;33.00;17.60;;;;;;;4.82;60.72;102411.24;1708318;83;21084;-70
2022/03/01 11:44:42;;;;;;;21.05;11.53;;;;;;;4.83;60.68;102410.28;1692818;83;21035;-71
2022/03/01 11:47:13;;;;;;;17.92;11.33;;;;;;;4.82;60.61;102404.64;1683837;85;21036;-71
2022/03/01 11:49:40;;;;;;;29.50;13.20;;;;;;;4.85;60.53;102400.50;1692671;83;21856;-70
2022/03/01 11:52:17;;;;;;;24.60;14.13;;;;;;;4.74;60.35;102393.62;1685290;85;21642;-71